Etusivu
METAR-TAF:

METAR-TAF

Lentoasemat :

Portage Glacier, Alaska, Yhdysvallat

Leveyspiiri: 60-47N, Pituuspiiri: 148-50W, korkeus merenpinnasta: 29 m

Tämänhetkinen sää

Tämä raportti tehtiin 32 minuuttia sitten, kello 21.53 UTC
Tuuli 7 kn idästä
Lämpötila 16°C
Kosteus 63%
Ilmanpaine 1011 hPa
Näkyvyys: 16.1 km
selkeää

METAR: PATO 172153Z AUTO 10007KT 10SM CLR 16/09 A2986 RMK AO2 SLP113 T01560089 TSNO

Aika: 14:25 (22:25 UTC)


TAF: puuttuu

Säähavainnot ja -ennusteet yli 4000 lentoasemalta (METAR- ja TAF-raportit).

Käytössä olevat sääasemat on merkitty karttaan keltaisilla ja punaisilla pisteillä.

Aseta hiiri pisteen päälle nähdäksesi sääaseman nimen.

Klikkaa sitten nähdäksesi säähavainnot ja -ennusteet.

Kartan vaihtaminen: klikkaa mustalla rastilla varustettuja vihreitä pisteitä, niin voit zoomata sisään; viivalla varustettua vihreää pistettä, niin voit zoomata ulos tai vihreitä nuolia, niin pääset viereisille kartoille.


METAR-TAF: